Time;durP1;ratioP1;P1;durP2;ratioP2;P2;SDS_P1;SDS_P2;PMS_P1;PMS_P2;Temp;Humidity;BMP_temperature;BMP_pressure;BME280_temperature;BME280_humidity;BME280_pressure;Samples;Min_cycle;Max_cycle;Signal;HPM_P1;HPM_P2
2021/03/05 00:01:30;;;;;;;16.97;12.93;;;9.60;99.90;;;;;;5135079;27;20199;-65
2021/03/05 00:03:56;;;;;;;17.20;14.80;;;9.40;99.90;;;;;;5134719;27;20252;-63
2021/03/05 00:06:22;;;;;;;17.37;14.43;;;9.30;99.90;;;;;;5134696;27;20227;-62
2021/03/05 00:08:48;;;;;;;15.80;14.13;;;9.30;99.90;;;;;;5134410;27;20202;-62
2021/03/05 00:11:15;;;;;;;16.77;14.50;;;9.20;99.90;;;;;;5134432;27;20202;-62
2021/03/05 00:13:41;;;;;;;17.70;14.83;;;9.10;99.90;;;;;;5135032;27;20560;-65
2021/03/05 00:16:08;;;;;;;17.20;14.53;;;9.10;99.90;;;;;;5136222;27;20227;-63
2021/03/05 00:18:35;;;;;;;16.20;14.57;;;9.10;99.90;;;;;;5135396;27;20207;-63
2021/03/05 00:21:01;;;;;;;17.20;15.33;;;9.00;99.90;;;;;;5134551;27;20214;-62
2021/03/05 00:23:27;;;;;;;16.90;14.97;;;9.00;99.90;;;;;;5134417;27;20203;-62
2021/03/05 00:25:53;;;;;;;16.27;14.43;;;9.00;99.90;;;;;;5134401;27;20226;-63
2021/03/05 00:28:20;;;;;;;16.43;14.73;;;8.90;99.90;;;;;;5134592;27;20659;-63
2021/03/05 00:30:46;;;;;;;17.13;15.33;;;8.80;99.90;;;;;;5134350;27;20203;-64
2021/03/05 00:33:13;;;;;;;16.40;14.17;;;8.70;99.90;;;;;;5134118;27;20210;-63
2021/03/05 00:35:40;;;;;;;15.77;13.17;;;8.70;99.90;;;;;;5134004;27;20218;-63
2021/03/05 00:38:06;;;;;;;13.47;11.43;;;8.60;99.90;;;;;;5133970;27;20206;-63
2021/03/05 00:40:32;;;;;;;13.47;11.97;;;8.50;99.90;;;;;;5134176;27;20209;-62
2021/03/05 00:42:59;;;;;;;11.60;10.43;;;8.40;99.90;;;;;;5133859;27;20225;-64
2021/03/05 00:45:25;;;;;;;11.93;10.73;;;8.20;99.90;;;;;;5133695;27;20230;-63
2021/03/05 00:47:51;;;;;;;12.37;11.07;;;8.10;99.90;;;;;;5134098;27;20583;-63
2021/03/05 00:50:19;;;;;;;14.07;12.57;;;8.00;99.90;;;;;;5133787;27;20198;-62
2021/03/05 00:52:48;;;;;;;14.77;12.67;;;8.00;99.90;;;;;;5133898;27;20214;-62
2021/03/05 00:55:14;;;;;;;14.47;12.53;;;7.90;99.90;;;;;;5133338;27;20273;-63
2021/03/05 00:57:40;;;;;;;14.93;13.13;;;7.80;99.90;;;;;;5133754;27;20678;-63
2021/03/05 01:00:09;;;;;;;16.20;13.50;;;7.70;99.90;;;;;;5133822;27;20658;-61
2021/03/05 01:02:35;;;;;;;16.43;13.57;;;7.80;99.90;;;;;;5133937;27;20210;-62
2021/03/05 01:05:02;;;;;;;17.63;14.20;;;7.60;99.90;;;;;;5133243;27;20234;-62
2021/03/05 01:07:28;;;;;;;20.57;15.90;;;7.60;99.90;;;;;;5133557;27;20202;-63
2021/03/05 01:09:55;;;;;;;20.60;14.47;;;7.50;99.90;;;;;;5133044;27;20233;-62
2021/03/05 01:12:22;;;;;;;21.03;14.60;;;7.50;99.90;;;;;;5133644;27;20202;-64
2021/03/05 01:14:49;;;;;;;20.10;15.00;;;7.30;99.90;;;;;;5133254;27;20303;-62
2021/03/05 01:17:15;;;;;;;21.90;15.70;;;7.30;99.90;;;;;;5133304;27;20586;-62
2021/03/05 01:19:42;;;;;;;20.17;15.70;;;7.10;99.90;;;;;;5132961;27;20206;-62
2021/03/05 01:22:08;;;;;;;19.13;14.40;;;7.10;99.90;;;;;;5132915;27;20203;-62
2021/03/05 01:24:34;;;;;;;21.20;15.80;;;7.20;99.90;;;;;;5133084;27;20227;-64
2021/03/05 01:27:02;;;;;;;20.67;16.30;;;7.30;99.90;;;;;;5133134;27;20199;-64
2021/03/05 01:29:28;;;;;;;18.73;14.90;;;7.30;99.90;;;;;;5133127;27;20203;-62
2021/03/05 01:31:54;;;;;;;21.23;15.80;;;7.30;99.90;;;;;;5133284;27;20666;-62
2021/03/05 01:34:21;;;;;;;19.27;14.23;;;7.30;99.90;;;;;;5133142;27;20199;-62
2021/03/05 01:36:47;;;;;;;17.63;14.67;;;7.30;99.90;;;;;;5132765;27;20202;-62
2021/03/05 01:39:13;;;;;;;18.63;14.20;;;7.20;99.90;;;;;;5132700;27;20213;-62
2021/03/05 01:41:39;;;;;;;18.57;14.50;;;7.30;99.90;;;;;;5133265;27;20206;-62
2021/03/05 01:44:08;;;;;;;19.13;14.87;;;7.20;99.90;;;;;;5132501;27;20728;-62
2021/03/05 01:46:35;;;;;;;18.63;15.40;;;7.30;99.90;;;;;;5133082;27;20206;-61
2021/03/05 01:49:01;;;;;;;18.50;14.30;;;7.20;99.90;;;;;;5132558;27;20210;-64
2021/03/05 01:51:30;;;;;;;19.67;15.23;;;7.30;99.90;;;;;;5132443;27;20203;-63
2021/03/05 01:53:56;;;;;;;19.30;15.13;;;7.30;99.90;;;;;;5133027;27;20214;-62
2021/03/05 01:56:35;;;;;;;18.40;15.57;;;7.20;99.90;;;;;;5132009;28;20609;-62
2021/03/05 01:59:02;;;;;;;19.03;15.60;;;7.10;99.90;;;;;;5132138;28;20263;-64
2021/03/05 02:01:30;;;;;;;18.33;15.23;;;7.20;99.90;;;;;;5132244;28;20210;-62
2021/03/05 02:03:57;;;;;;;19.90;14.67;;;7.30;99.90;;;;;;5131420;28;20210;-62
2021/03/05 02:06:24;;;;;;;19.43;15.47;;;7.40;99.90;;;;;;5131662;28;20711;-64
2021/03/05 02:08:51;;;;;;;19.57;15.37;;;7.40;99.90;;;;;;5131786;28;20654;-62
2021/03/05 02:11:19;;;;;;;20.70;16.23;;;7.40;99.90;;;;;;5131559;28;20678;-62
2021/03/05 02:13:45;;;;;;;21.50;16.03;;;7.60;99.90;;;;;;5131274;28;20210;-62
2021/03/05 02:16:20;;;;;;;19.20;15.37;;;7.60;99.90;;;;;;5131400;28;20229;-62
2021/03/05 02:18:55;;;;;;;19.73;15.23;;;7.60;99.90;;;;;;5131510;28;20206;-63
2021/03/05 02:21:52;;;;;;;18.53;14.47;;;7.60;99.90;;;;;;5131675;27;20761;-62
2021/03/05 02:24:50;;;;;;;19.50;14.80;;;7.60;99.90;;;;;;5135103;28;20218;-64
2021/03/05 02:27:44;;;;;;;19.50;15.00;;;7.40;99.90;;;;;;5093784;28;20207;-62
2021/03/05 02:30:36;;;;;;;18.03;14.47;;;7.30;99.90;;;;;;5135652;28;20198;-62
2021/03/05 02:33:08;;;;;;;20.20;14.77;;;7.30;99.90;;;;;;5134945;28;20199;-62
2021/03/05 02:35:34;;;;;;;20.00;14.43;;;7.20;99.90;;;;;;5135317;28;20219;-62
2021/03/05 02:38:03;;;;;;;19.80;14.70;;;7.20;99.90;;;;;;5135099;28;20206;-62
2021/03/05 02:40:33;;;;;;;16.83;13.50;;;7.20;99.90;;;;;;5135023;28;20202;-63
2021/03/05 02:43:03;;;;;;;18.30;13.73;;;7.30;99.90;;;;;;5135123;28;20207;-62
2021/03/05 02:45:31;;;;;;;19.90;14.40;;;7.20;99.90;;;;;;5135334;28;20237;-62
2021/03/05 02:48:02;;;;;;;17.63;13.97;;;7.20;99.90;;;;;;5134997;28;20255;-62
2021/03/05 02:50:32;;;;;;;17.93;14.50;;;7.30;99.90;;;;;;5135066;28;20203;-62
2021/03/05 02:53:02;;;;;;;18.63;14.77;;;7.30;99.90;;;;;;5135142;28;20203;-63
2021/03/05 02:55:29;;;;;;;18.03;14.20;;;7.30;99.90;;;;;;5117189;27;536523;-63
2021/03/05 02:57:59;;;;;;;18.23;13.87;;;7.30;99.90;;;;;;5136368;27;20195;-63
2021/03/05 03:00:26;;;;;;;16.33;13.27;;;7.40;99.90;;;;;;5136199;27;20666;-63
2021/03/05 03:02:54;;;;;;;19.53;14.57;;;7.30;99.90;;;;;;5136554;27;20202;-63
2021/03/05 03:05:21;;;;;;;18.97;14.53;;;7.40;99.90;;;;;;5136053;27;20590;-63
2021/03/05 03:07:50;;;;;;;17.33;13.67;;;7.40;99.90;;;;;;5136131;27;20214;-64
2021/03/05 03:10:19;;;;;;;17.00;13.27;;;7.40;99.90;;;;;;5136360;27;20217;-63
2021/03/05 03:12:46;;;;;;;19.47;14.60;;;7.40;99.90;;;;;;5136956;27;20203;-63
2021/03/05 03:15:14;;;;;;;18.07;14.27;;;7.50;99.90;;;;;;5136707;27;20609;-64
2021/03/05 03:17:43;;;;;;;17.67;13.83;;;7.40;99.90;;;;;;5136411;27;20597;-63
2021/03/05 03:20:13;;;;;;;18.90;14.77;;;7.50;99.90;;;;;;5136227;27;20199;-63
2021/03/05 03:22:40;;;;;;;17.07;13.47;;;7.60;99.90;;;;;;5135749;27;20264;-63
2021/03/05 03:25:08;;;;;;;17.17;12.97;;;7.50;99.90;;;;;;5135311;27;20234;-64
2021/03/05 03:27:35;;;;;;;14.60;12.30;;;7.50;99.90;;;;;;5135731;27;20552;-63
2021/03/05 03:30:01;;;;;;;15.90;13.00;;;7.40;99.90;;;;;;5135480;27;20562;-63
2021/03/05 03:32:28;;;;;;;15.07;11.90;;;7.30;99.90;;;;;;5135184;27;20203;-63
2021/03/05 03:34:55;;;;;;;16.17;13.13;;;7.30;99.90;;;;;;5135249;27;20284;-65
2021/03/05 03:37:23;;;;;;;14.20;11.97;;;7.40;99.90;;;;;;5135397;27;20214;-65
2021/03/05 03:39:49;;;;;;;15.63;12.43;;;7.30;99.90;;;;;;5135342;27;20257;-65
2021/03/05 03:42:16;;;;;;;15.17;11.97;;;7.30;99.90;;;;;;5135685;27;20212;-65
2021/03/05 03:44:43;;;;;;;15.73;12.73;;;7.30;99.90;;;;;;5135074;27;20604;-65
2021/03/05 03:47:09;;;;;;;15.93;12.67;;;7.30;99.90;;;;;;5135022;27;20203;-63
2021/03/05 03:49:42;;;;;;;14.83;12.17;;;7.20;99.90;;;;;;5134704;27;20203;-63
2021/03/05 03:52:17;;;;;;;14.33;11.60;;;7.20;99.90;;;;;;5134823;27;20206;-64
2021/03/05 03:54:45;;;;;;;15.03;12.27;;;7.20;99.90;;;;;;5134666;27;20786;-63
2021/03/05 03:57:14;;;;;;;12.83;11.27;;;7.10;99.90;;;;;;5134972;27;20210;-64
2021/03/05 03:59:41;;;;;;;11.97;10.53;;;7.10;99.90;;;;;;5135240;27;20374;-64
2021/03/05 04:02:08;;;;;;;14.67;11.27;;;7.10;99.90;;;;;;5134993;27;20232;-65
2021/03/05 04:04:36;;;;;;;14.00;11.23;;;7.10;99.90;;;;;;5134298;27;20687;-63
2021/03/05 04:07:05;;;;;;;14.47;10.67;;;7.10;99.90;;;;;;5135003;27;20206;-64
2021/03/05 04:09:32;;;;;;;12.17;10.40;;;7.10;99.90;;;;;;5134778;27;20203;-63
2021/03/05 04:11:59;;;;;;;13.00;10.80;;;7.20;99.90;;;;;;5134396;27;20202;-63
2021/03/05 04:14:26;;;;;;;13.07;10.63;;;7.20;99.90;;;;;;5134247;27;20227;-64
2021/03/05 04:16:54;;;;;;;9.83;8.73;;;7.10;99.90;;;;;;5134193;27;20199;-64
2021/03/05 04:19:23;;;;;;;10.33;8.87;;;7.00;99.90;;;;;;5134564;27;20211;-63
2021/03/05 04:21:50;;;;;;;9.90;8.63;;;6.90;99.90;;;;;;5134346;27;20252;-64
2021/03/05 04:24:17;;;;;;;11.33;8.70;;;6.90;99.90;;;;;;5133985;27;20717;-63
2021/03/05 04:26:45;;;;;;;10.80;8.47;;;6.90;99.90;;;;;;5134152;27;20237;-63
2021/03/05 04:29:12;;;;;;;9.30;8.20;;;6.90;99.90;;;;;;5133923;27;20280;-64
2021/03/05 04:31:38;;;;;;;9.80;8.13;;;6.80;99.90;;;;;;5134061;27;20199;-63
2021/03/05 04:34:05;;;;;;;8.63;7.03;;;6.70;99.90;;;;;;5133591;27;20671;-63
2021/03/05 04:36:31;;;;;;;9.70;7.57;;;6.70;99.90;;;;;;5134091;27;20199;-63
2021/03/05 04:38:57;;;;;;;10.20;7.57;;;6.70;99.90;;;;;;5134045;27;20202;-63
2021/03/05 04:41:24;;;;;;;9.43;7.70;;;6.70;99.90;;;;;;5134073;27;20621;-63
2021/03/05 04:43:50;;;;;;;9.47;7.50;;;6.70;99.90;;;;;;5133961;27;20288;-63
2021/03/05 04:46:16;;;;;;;8.40;7.37;;;6.60;99.90;;;;;;5133127;27;20729;-63
2021/03/05 04:48:42;;;;;;;9.97;7.43;;;6.50;99.90;;;;;;5133903;27;20213;-63
2021/03/05 04:51:09;;;;;;;8.47;7.13;;;6.50;99.90;;;;;;5133611;27;20203;-63
2021/03/05 04:53:35;;;;;;;8.33;7.13;;;6.40;99.90;;;;;;5133867;27;20529;-63
2021/03/05 04:56:02;;;;;;;8.10;6.67;;;6.40;99.90;;;;;;5133716;27;20227;-63
2021/03/05 04:58:28;;;;;;;7.17;5.80;;;6.30;99.90;;;;;;5133349;27;20259;-63
2021/03/05 05:00:54;;;;;;;6.20;5.50;;;6.20;99.90;;;;;;5133401;27;20682;-63
2021/03/05 05:03:20;;;;;;;7.40;6.07;;;6.10;99.90;;;;;;5133504;27;20369;-63
2021/03/05 05:05:46;;;;;;;7.30;5.90;;;6.20;99.90;;;;;;5133341;27;20275;-63
2021/03/05 05:08:13;;;;;;;7.87;6.30;;;6.30;99.90;;;;;;5133234;27;20587;-63
2021/03/05 05:10:40;;;;;;;6.83;5.77;;;6.20;99.90;;;;;;5133150;27;20701;-62
2021/03/05 05:13:06;;;;;;;8.03;6.63;;;6.30;99.90;;;;;;5133467;27;20219;-62
2021/03/05 05:15:32;;;;;;;7.00;6.30;;;6.30;99.90;;;;;;5132964;27;20759;-63
2021/03/05 05:17:58;;;;;;;6.70;5.83;;;6.30;99.90;;;;;;5133408;27;20207;-63
2021/03/05 05:20:24;;;;;;;8.17;6.53;;;6.20;99.90;;;;;;5133232;27;20205;-63
2021/03/05 05:22:50;;;;;;;7.27;6.30;;;6.20;99.90;;;;;;5133273;27;20820;-63
2021/03/05 05:25:18;;;;;;;7.93;6.37;;;6.10;99.90;;;;;;5133042;27;20237;-63
2021/03/05 05:27:44;;;;;;;8.13;6.57;;;6.10;99.90;;;;;;5133168;27;20202;-63
2021/03/05 05:30:12;;;;;;;8.43;6.73;;;6.10;99.90;;;;;;5132951;27;20234;-62
2021/03/05 05:32:38;;;;;;;8.90;6.70;;;6.10;99.90;;;;;;5133220;27;20610;-63
2021/03/05 05:35:06;;;;;;;9.30;7.30;;;6.10;99.90;;;;;;5132914;27;20230;-62
2021/03/05 05:37:32;;;;;;;8.63;6.50;;;6.10;99.90;;;;;;5132807;27;20203;-62
2021/03/05 05:39:58;;;;;;;8.03;6.43;;;6.20;99.90;;;;;;5132947;27;20647;-62
2021/03/05 05:42:25;;;;;;;7.63;6.17;;;6.10;99.90;;;;;;5132855;27;20237;-63
2021/03/05 05:44:51;;;;;;;8.63;6.90;;;6.10;99.90;;;;;;5132719;27;20237;-62
2021/03/05 05:47:18;;;;;;;10.13;8.03;;;6.00;99.90;;;;;;5132790;27;20210;-63
2021/03/05 05:49:45;;;;;;;8.93;7.10;;;5.80;99.90;;;;;;5132640;27;20740;-63
2021/03/05 05:52:13;;;;;;;8.80;7.17;;;5.70;99.90;;;;;;5133790;27;20202;-62
2021/03/05 05:54:41;;;;;;;8.87;7.13;;;5.60;99.90;;;;;;5134172;27;20252;-63
2021/03/05 05:57:08;;;;;;;9.17;7.10;;;5.60;99.90;;;;;;5135700;27;20210;-62
2021/03/05 05:59:35;;;;;;;10.87;8.50;;;5.60;99.90;;;;;;5135461;27;20206;-63
2021/03/05 06:02:01;;;;;;;10.53;7.60;;;5.70;99.90;;;;;;5135022;27;20830;-63
2021/03/05 06:04:28;;;;;;;10.03;7.43;;;5.60;99.90;;;;;;5133860;27;20230;-63
2021/03/05 06:06:54;;;;;;;12.10;8.63;;;5.60;99.90;;;;;;5133712;27;20206;-63
2021/03/05 06:09:20;;;;;;;10.53;8.33;;;5.60;99.90;;;;;;5132609;27;20274;-63
2021/03/05 06:11:46;;;;;;;11.10;8.47;;;5.60;99.90;;;;;;5132732;27;20229;-63
2021/03/05 06:14:13;;;;;;;10.63;8.47;;;5.70;99.90;;;;;;5133060;27;20262;-63
2021/03/05 06:16:53;;;;;;;10.37;8.27;;;5.70;99.90;;;;;;5133445;28;20206;-63
2021/03/05 06:19:23;;;;;;;10.93;8.13;;;5.80;99.90;;;;;;5132655;28;20214;-63
2021/03/05 06:21:49;;;;;;;11.20;8.67;;;5.70;99.90;;;;;;5132355;28;20254;-63
2021/03/05 06:24:17;;;;;;;15.43;8.80;;;5.70;99.90;;;;;;5132924;28;20210;-62
2021/03/05 06:26:54;;;;;;;11.73;8.57;;;5.70;99.90;;;;;;5134973;28;20242;-63
2021/03/05 06:29:22;;;;;;;12.97;9.90;;;5.60;99.90;;;;;;5133668;28;20233;-63
2021/03/05 06:31:59;;;;;;;12.30;8.90;;;5.60;99.90;;;;;;5134073;28;20201;-62
2021/03/05 06:34:26;;;;;;;12.37;8.53;;;5.50;99.90;;;;;;5133008;28;20263;-61
2021/03/05 06:37:03;;;;;;;10.93;8.53;;;5.50;99.90;;;;;;5132657;28;20214;-61
2021/03/05 06:39:30;;;;;;;12.07;8.83;;;5.50;99.90;;;;;;5132259;28;20202;-61
2021/03/05 06:41:58;;;;;;;14.43;9.33;;;5.40;99.90;;;;;;5132552;28;20214;-62
2021/03/05 06:44:24;;;;;;;11.20;8.70;;;5.50;99.90;;;;;;5132827;28;20257;-62
2021/03/05 06:46:51;;;;;;;14.00;9.63;;;5.60;99.90;;;;;;5133005;28;20207;-62
2021/03/05 06:49:18;;;;;;;12.33;9.47;;;5.60;99.90;;;;;;5132419;28;20739;-61
2021/03/05 06:51:52;;;;;;;11.97;9.07;;;5.50;99.90;;;;;;5132870;28;20210;-62
2021/03/05 06:54:18;;;;;;;13.10;9.03;;;5.50;99.90;;;;;;5132631;28;20251;-62
2021/03/05 06:56:47;;;;;;;10.83;8.63;;;5.50;99.90;;;;;;5132974;28;20206;-62
2021/03/05 06:59:16;;;;;;;12.27;8.53;;;5.50;99.90;;;;;;5132629;28;20582;-62
2021/03/05 07:01:48;;;;;;;12.40;8.73;;;5.50;99.90;;;;;;5132676;28;20209;-62
2021/03/05 07:04:16;;;;;;;14.07;9.60;;;5.40;99.90;;;;;;5133905;28;20230;-62
2021/03/05 07:06:43;;;;;;;11.50;8.70;;;5.30;99.90;;;;;;5133604;28;20207;-62
2021/03/05 07:09:11;;;;;;;13.47;9.43;;;5.30;99.90;;;;;;5136430;27;20203;-62
2021/03/05 07:11:40;;;;;;;12.93;9.03;;;5.30;99.90;;;;;;5137092;27;20202;-62
2021/03/05 07:14:08;;;;;;;12.50;9.33;;;5.40;99.90;;;;;;5136374;27;20211;-62
2021/03/05 07:16:43;;;;;;;12.30;9.20;;;5.30;99.90;;;;;;5136752;27;20207;-62
2021/03/05 07:19:11;;;;;;;15.93;9.57;;;5.40;99.90;;;;;;5136201;27;20259;-58
2021/03/05 07:21:40;;;;;;;12.47;9.30;;;5.60;99.90;;;;;;5135269;27;20234;-58
2021/03/05 07:24:10;;;;;;;13.77;9.40;;;5.70;99.90;;;;;;5135621;27;20252;-58
2021/03/05 07:26:43;;;;;;;12.37;8.87;;;5.70;99.90;;;;;;5135119;27;20223;-60
2021/03/05 07:29:16;;;;;;;12.93;9.00;;;5.70;99.90;;;;;;5135342;27;20207;-63
2021/03/05 07:31:44;;;;;;;14.03;9.53;;;5.80;99.90;;;;;;5135017;27;20582;-61
2021/03/05 07:34:17;;;;;;;11.93;8.40;;;5.90;99.90;;;;;;5134885;27;20263;-60
2021/03/05 07:36:47;;;;;;;13.83;10.27;;;6.00;99.90;;;;;;5134989;27;20230;-60
2021/03/05 07:39:20;;;;;;;11.97;9.07;;;6.10;99.90;;;;;;5134712;27;20581;-60
2021/03/05 07:41:49;;;;;;;14.83;10.13;;;6.10;99.90;;;;;;5135186;27;20206;-61
2021/03/05 07:44:15;;;;;;;12.50;8.83;;;6.20;99.90;;;;;;5134505;27;20210;-60
2021/03/05 07:46:42;;;;;;;13.90;9.10;;;6.30;99.90;;;;;;5135351;27;20203;-60
2021/03/05 07:49:09;;;;;;;11.50;8.97;;;6.30;99.90;;;;;;5135136;27;20288;-61
2021/03/05 07:51:37;;;;;;;11.97;8.97;;;6.40;99.90;;;;;;5134956;27;20203;-60
2021/03/05 07:54:05;;;;;;;11.93;9.33;;;6.40;99.90;;;;;;5135151;27;20685;-60
2021/03/05 07:56:42;;;;;;;13.60;10.13;;;6.70;99.90;;;;;;5135533;27;20199;-62
2021/03/05 07:59:09;;;;;;;12.47;9.47;;;7.00;99.90;;;;;;5134694;27;20207;-62
2021/03/05 08:01:56;;;;;;;12.57;9.63;;;7.20;99.90;;;;;;5135174;27;20207;-62
2021/03/05 08:04:23;;;;;;;13.43;9.20;;;7.20;99.90;;;;;;5134248;27;20230;-62
2021/03/05 08:07:08;;;;;;;13.40;9.33;;;7.10;99.90;;;;;;5134659;27;20230;-62
2021/03/05 08:09:36;;;;;;;12.63;9.23;;;7.10;99.90;;;;;;5134192;27;20286;-63
2021/03/05 08:12:36;;;;;;;14.30;9.37;;;7.00;99.90;;;;;;5134420;27;20227;-62
2021/03/05 08:15:21;;;;;;;13.50;9.40;;;7.10;99.90;;;;;;5135357;27;20219;-62
2021/03/05 08:17:49;;;;;;;13.40;10.37;;;7.10;99.90;;;;;;5134981;27;20199;-62
2021/03/05 08:20:58;;;;;;;10.87;8.80;;;7.40;99.90;;;;;;5133195;27;20206;-62
2021/03/05 08:23:24;;;;;;;12.40;9.37;;;7.70;99.90;;;;;;5134111;27;20202;-62
2021/03/05 08:25:54;;;;;;;11.60;8.87;;;7.90;99.90;;;;;;5134250;27;20268;-63
2021/03/05 08:28:43;;;;;;;12.50;9.20;;;8.00;99.90;;;;;;5134875;27;20331;-63
2021/03/05 08:31:35;;;;;;;12.57;8.57;;;8.00;99.90;;;;;;5134194;27;20202;-63
2021/03/05 08:34:24;;;;;;;10.63;8.23;;;7.80;99.90;;;;;;5134790;27;20700;-63
2021/03/05 08:36:50;;;;;;;11.13;7.93;;;7.80;99.90;;;;;;5134399;27;20227;-63
2021/03/05 08:39:24;;;;;;;12.00;9.03;;;7.80;99.90;;;;;;5134277;27;20210;-63
2021/03/05 08:42:30;;;;;;;12.83;9.17;;;7.70;99.90;;;;;;5133890;27;20214;-65
2021/03/05 08:45:26;;;;;;;11.33;8.77;;;7.90;99.90;;;;;;5133264;27;20333;-63
2021/03/05 08:47:54;;;;;;;10.57;8.43;;;8.00;99.90;;;;;;5085998;27;20199;-63
2021/03/05 08:50:22;;;;;;;11.17;7.93;;;7.80;99.90;;;;;;5133090;27;20674;-63
2021/03/05 08:52:49;;;;;;;10.67;7.93;;;7.80;99.90;;;;;;5133382;27;20213;-63
2021/03/05 08:55:17;;;;;;;12.67;8.70;;;7.90;99.90;;;;;;5126653;22;20224;-62
2021/03/05 08:57:45;;;;;;;11.37;8.60;;;7.80;99.90;;;;;;5072088;28;20591;-62
2021/03/05 09:00:18;;;;;;;10.13;8.17;;;7.70;99.90;;;;;;5072087;28;20204;-61
2021/03/05 09:02:48;;;;;;;11.50;8.33;;;7.80;99.90;;;;;;5071895;28;20431;-61
2021/03/05 09:05:24;;;;;;;13.30;8.90;;;7.80;99.90;;;;;;5071807;28;20236;-60
2021/03/05 09:07:52;;;;;;;12.43;8.87;;;7.70;99.90;;;;;;5072254;28;20204;-59
2021/03/05 09:10:20;;;;;;;10.23;8.37;;;7.80;99.90;;;;;;5072397;28;20241;-58
2021/03/05 09:12:58;;;;;;;13.83;8.80;;;7.90;99.90;;;;;;5072290;28;20554;-58
2021/03/05 09:15:28;;;;;;;10.93;8.60;;;8.00;99.90;;;;;;5071855;28;20228;-58
2021/03/05 09:17:57;;;;;;;10.57;8.43;;;7.90;99.90;;;;;;5071977;28;20261;-58
2021/03/05 09:20:23;;;;;;;10.50;7.93;;;7.90;99.90;;;;;;5072273;28;20201;-57
2021/03/05 09:22:49;;;;;;;11.80;8.17;;;7.70;99.90;;;;;;5071581;28;20212;-59
2021/03/05 09:25:16;;;;;;;12.87;8.37;;;7.60;99.90;;;;;;5071034;28;20229;-57
2021/03/05 09:27:44;;;;;;;11.33;8.20;;;7.70;99.90;;;;;;5071430;28;20208;-57
2021/03/05 09:30:16;;;;;;;9.73;8.13;;;7.70;99.90;;;;;;5071435;28;20215;-57
2021/03/05 09:32:47;;;;;;;11.37;8.00;;;7.80;99.90;;;;;;5071448;28;20205;-57
2021/03/05 09:35:14;;;;;;;11.23;7.97;;;7.80;99.90;;;;;;5070639;28;20225;-59
2021/03/05 09:37:41;;;;;;;11.53;8.57;;;8.00;99.90;;;;;;5070039;28;20204;-58
2021/03/05 09:40:09;;;;;;;11.10;8.50;;;8.00;99.90;;;;;;5069012;28;20331;-61
2021/03/05 09:42:47;;;;;;;13.47;8.93;;;7.90;99.90;;;;;;5071341;28;20205;-60
2021/03/05 09:45:31;;;;;;;12.73;9.27;;;7.90;99.90;;;;;;5070860;28;20640;-61
2021/03/05 09:47:57;;;;;;;10.73;7.97;;;7.90;99.90;;;;;;5061642;28;20205;-63
2021/03/05 09:50:25;;;;;;;10.23;7.50;;;7.90;99.90;;;;;;5050974;28;20205;-60
2021/03/05 09:52:52;;;;;;;11.03;8.37;;;7.90;99.90;;;;;;5050911;28;20276;-60
2021/03/05 09:55:26;;;;;;;14.00;8.80;;;8.00;99.90;;;;;;5051008;28;20229;-60
2021/03/05 09:57:52;;;;;;;10.17;8.00;;;8.10;99.90;;;;;;5051412;28;20208;-61
2021/03/05 10:00:29;;;;;;;11.67;8.40;;;8.20;99.90;;;;;;5051145;28;20213;-60
2021/03/05 10:03:03;;;;;;;9.70;7.87;;;8.30;99.90;;;;;;5050779;28;20212;-60
2021/03/05 10:05:31;;;;;;;12.03;8.37;;;8.40;99.90;;;;;;5051010;28;20234;-60
2021/03/05 10:07:57;;;;;;;12.07;8.40;;;8.50;99.90;;;;;;5051039;28;20268;-60
2021/03/05 10:10:23;;;;;;;11.80;8.63;;;8.50;99.90;;;;;;5050851;28;20291;-60
2021/03/05 10:12:54;;;;;;;11.50;9.00;;;8.50;99.90;;;;;;5050855;28;20205;-61
2021/03/05 10:15:21;;;;;;;11.20;8.07;;;8.60;99.90;;;;;;5050675;28;20218;-61
2021/03/05 10:17:47;;;;;;;10.73;8.07;;;8.60;99.90;;;;;;5050731;28;20209;-61
2021/03/05 10:20:14;;;;;;;12.20;9.07;;;8.60;99.90;;;;;;5050641;28;20688;-61
2021/03/05 10:22:42;;;;;;;11.57;8.47;;;8.40;99.90;;;;;;5050917;28;20215;-62
2021/03/05 10:25:12;;;;;;;10.43;8.30;;;8.50;99.90;;;;;;5050496;28;20713;-60
2021/03/05 10:27:42;;;;;;;12.37;8.00;;;8.30;99.90;;;;;;5050769;28;20638;-60
2021/03/05 10:30:09;;;;;;;11.13;8.63;;;8.30;99.90;;;;;;5050617;28;20731;-61
2021/03/05 10:32:39;;;;;;;12.03;8.67;;;8.20;99.90;;;;;;5051158;28;20216;-61
2021/03/05 10:35:09;;;;;;;13.47;8.63;;;8.20;99.90;;;;;;5050864;28;20697;-60
2021/03/05 10:37:36;;;;;;;12.70;8.93;;;8.20;99.90;;;;;;5050974;28;20584;-61
2021/03/05 10:40:05;;;;;;;13.10;8.60;;;8.30;99.90;;;;;;5051602;28;20669;-61
2021/03/05 10:42:31;;;;;;;10.90;8.57;;;8.30;99.90;;;;;;5052113;28;20231;-61
2021/03/05 10:44:57;;;;;;;11.10;8.90;;;8.30;99.90;;;;;;5055763;28;20240;-61
2021/03/05 10:47:24;;;;;;;14.37;8.63;;;8.30;99.90;;;;;;5055181;28;20244;-61
2021/03/05 10:49:51;;;;;;;9.80;7.33;;;8.30;99.90;;;;;;5054990;28;20585;-61
2021/03/05 10:52:22;;;;;;;13.60;7.93;;;8.40;99.90;;;;;;5054824;28;20590;-61
2021/03/05 10:54:48;;;;;;;10.63;7.20;;;8.30;99.90;;;;;;5054209;28;20724;-60
2021/03/05 10:57:16;;;;;;;11.23;8.40;;;8.30;99.90;;;;;;5054590;28;20209;-60
2021/03/05 10:59:43;;;;;;;9.80;7.43;;;8.40;99.90;;;;;;5054591;28;20304;-60
2021/03/05 11:02:09;;;;;;;10.33;8.40;;;8.50;99.90;;;;;;5054433;28;20743;-60
2021/03/05 11:04:36;;;;;;;12.13;7.77;;;8.40;99.90;;;;;;5054027;28;20206;-61
2021/03/05 11:07:02;;;;;;;12.40;8.13;;;8.50;99.90;;;;;;5054413;28;20205;-62
2021/03/05 11:09:29;;;;;;;13.87;8.27;;;8.50;99.90;;;;;;5054290;28;20201;-62
2021/03/05 11:11:56;;;;;;;10.87;7.80;;;8.50;99.70;;;;;;5053944;28;20213;-61
2021/03/05 11:14:24;;;;;;;10.23;7.93;;;8.50;99.90;;;;;;5054247;28;20206;-60
2021/03/05 11:16:51;;;;;;;10.88;9.00;;;8.50;99.40;;;;;;5055843;28;20451;-61
2021/03/05 11:19:17;;;;;;;10.20;8.20;;;8.30;99.90;;;;;;5093810;28;20204;-59
2021/03/05 11:21:44;;;;;;;11.40;8.87;;;8.30;99.90;;;;;;5094677;28;20207;-59
2021/03/05 11:24:11;;;;;;;13.27;8.80;;;8.30;99.90;;;;;;5094138;28;20239;-60
2021/03/05 11:26:37;;;;;;;13.03;8.33;;;8.40;99.90;;;;;;5093523;28;20236;-58
2021/03/05 11:29:04;;;;;;;11.73;8.63;;;8.50;99.90;;;;;;5093814;28;20208;-61
2021/03/05 11:31:32;;;;;;;12.73;8.53;;;8.50;99.80;;;;;;5094272;28;20208;-61
2021/03/05 11:33:58;;;;;;;12.23;8.77;;;8.40;99.90;;;;;;5093863;28;20288;-60
2021/03/05 11:36:24;;;;;;;11.17;8.30;;;8.30;99.90;;;;;;5094168;28;20221;-59
2021/03/05 11:38:51;;;;;;;14.03;9.40;;;8.20;99.90;;;;;;5093677;28;20208;-59
2021/03/05 11:41:19;;;;;;;13.27;9.07;;;8.20;99.90;;;;;;5094152;28;20204;-59
2021/03/05 11:43:48;;;;;;;12.93;8.83;;;8.20;99.90;;;;;;5093437;28;20718;-60
2021/03/05 11:46:16;;;;;;;11.87;9.00;;;8.40;99.90;;;;;;5093862;28;20302;-59
2021/03/05 11:48:43;;;;;;;13.03;8.63;;;8.40;99.90;;;;;;5093523;28;20579;-61
2021/03/05 11:51:09;;;;;;;16.90;9.50;;;8.30;99.90;;;;;;5093669;28;20204;-61
2021/03/05 11:53:36;;;;;;;12.33;8.07;;;8.40;99.90;;;;;;5093251;28;20258;-58
2021/03/05 11:56:02;;;;;;;12.53;8.17;;;8.60;99.90;;;;;;5093440;28;20259;-60
2021/03/05 11:58:29;;;;;;;12.13;8.50;;;8.70;99.60;;;;;;5093592;28;20204;-60
2021/03/05 12:00:55;;;;;;;12.03;8.73;;;8.80;99.60;;;;;;5093432;28;20581;-61
2021/03/05 12:03:21;;;;;;;12.70;8.33;;;9.00;99.30;;;;;;5093945;28;20204;-60
2021/03/05 12:05:48;;;;;;;13.73;8.67;;;9.10;99.10;;;;;;5093726;28;20236;-59
2021/03/05 12:08:14;;;;;;;12.60;8.50;;;9.20;98.50;;;;;;5094081;28;20222;-60
2021/03/05 12:10:41;;;;;;;10.27;8.27;;;9.30;98.20;;;;;;5093573;28;20208;-60
2021/03/05 12:13:07;;;;;;;12.07;8.00;;;9.30;98.20;;;;;;5092969;28;20227;-60
2021/03/05 12:15:33;;;;;;;12.27;8.60;;;9.20;97.90;;;;;;5092862;28;20220;-60
2021/03/05 12:17:59;;;;;;;12.20;8.57;;;9.20;97.60;;;;;;5092748;28;20223;-59
2021/03/05 12:20:26;;;;;;;13.10;8.30;;;9.10;98.20;;;;;;5092773;28;20208;-59
2021/03/05 12:22:53;;;;;;;10.77;8.17;;;9.30;98.30;;;;;;5093040;28;20204;-59
2021/03/05 12:25:19;;;;;;;12.27;8.30;;;9.40;97.50;;;;;;5092617;28;20235;-60
2021/03/05 12:27:45;;;;;;;8.87;7.77;;;9.50;97.60;;;;;;5092532;28;20668;-60
2021/03/05 12:30:12;;;;;;;11.57;8.80;;;9.60;96.90;;;;;;5092906;28;20211;-60
2021/03/05 12:32:39;;;;;;;13.03;8.87;;;9.50;97.20;;;;;;5092860;28;20253;-60
2021/03/05 12:35:06;;;;;;;10.60;8.50;;;9.40;97.80;;;;;;5092563;28;20216;-60
2021/03/05 12:37:33;;;;;;;10.37;8.47;;;9.50;97.60;;;;;;5092890;28;20209;-60
2021/03/05 12:40:00;;;;;;;11.83;8.63;;;9.30;97.40;;;;;;5092726;28;20211;-60
2021/03/05 12:42:26;;;;;;;11.57;8.40;;;9.30;97.70;;;;;;5092475;28;20204;-60
2021/03/05 12:44:52;;;;;;;15.97;11.90;;;9.20;97.70;;;;;;5092258;28;20817;-60
2021/03/05 12:47:18;;;;;;;11.33;8.27;;;9.00;98.00;;;;;;5092454;28;20208;-61
2021/03/05 12:49:45;;;;;;;11.57;8.33;;;8.90;98.10;;;;;;5092328;28;20207;-61
2021/03/05 12:52:11;;;;;;;11.20;7.77;;;8.80;98.00;;;;;;5092793;28;20845;-59
2021/03/05 12:54:37;;;;;;;11.77;8.07;;;8.80;98.20;;;;;;5092293;28;20209;-59